| time (UTC) | temp F | wind direction | speed knots | gust knots | rain 1hr in | rain 24hr in | rain mn in | humidity % | barometer mb |
| 20260507001422 | 54 | 265 | 0.0 | 0.9 | 0.00 | 0.00 | 0.00 | 31 | 1012.0 |
| 20260507000920 | 54 | 276 | 3.5 | 5.2 | 0.00 | 0.00 | 0.00 | 32 | 1012.1 |
| 20260507000415 | 54 | 240 | 1.7 | 1.7 | 0.00 | 0.00 | 0.00 | 32 | 1012.1 |
| 20260506235911 | 54 | 194 | 0.9 | 1.7 | 0.00 | 0.00 | 0.00 | 32 | 1012.2 |
| 20260506235409 | 54 | 165 | 0.0 | 0.9 | 0.00 | 0.00 | 0.00 | 31 | 1012.2 |
| 20260506234903 | 55 | 239 | 1.7 | 1.7 | 0.00 | 0.00 | 0.00 | 30 | 1012.1 |
| 20260506234402 | 54 | 229 | 1.7 | 1.7 | 0.00 | 0.00 | 0.00 | 32 | 1012.3 |
| 20260506233859 | 55 | 188 | 0.9 | 1.7 | 0.00 | 0.00 | 0.00 | 31 | 1012.2 |
| 20260506233355 | 55 | 199 | 1.7 | 1.7 | 0.00 | 0.00 | 0.00 | 31 | 1012.3 |
| 20260506232852 | 56 | 219 | 0.9 | 1.7 | 0.00 | 0.00 | 0.00 | 30 | 1012.3 |
| 20260506232348 | 56 | 82 | 1.7 | 2.6 | 0.00 | 0.00 | 0.00 | 30 | 1012.3 |
| 20260506231844 | 55 | 201 | 0.9 | 1.7 | 0.00 | 0.00 | 0.00 | 31 | 1012.3 |
| 20260506231342 | 55 | 190 | 1.7 | 2.6 | 0.00 | 0.00 | 0.00 | 30 | 1012.5 |
| 20260506230839 | 54 | 222 | 2.6 | 5.2 | 0.00 | 0.00 | 0.00 | 31 | 1012.3 |
| 20260506230336 | 55 | 223 | 2.6 | 3.5 | 0.00 | 0.00 | 0.00 | 30 | 1012.6 |
| 20260506225832 | 56 | 210 | 2.6 | 3.5 | 0.00 | 0.00 | 0.00 | 29 | 1012.3 |
| 20260506225330 | 55 | 180 | 1.7 | 2.6 | 0.00 | 0.00 | 0.00 | 30 | 1012.6 |
| 20260506224826 | 55 | 202 | 0.9 | 0.9 | 0.00 | 0.00 | 0.00 | 31 | 1012.5 |
| 20260506224324 | 55 | 184 | 3.5 | 6.1 | 0.00 | 0.00 | 0.00 | 29 | 1012.5 |
| 20260506223820 | 55 | 160 | 1.7 | 1.7 | 0.00 | 0.00 | 0.00 | 32 | 1012.7 |
| 20260506223314 | 55 | 268 | 4.3 | 6.1 | 0.00 | 0.00 | 0.00 | 31 | 1012.8 |
| 20260506222812 | 54 | 182 | 0.9 | 1.7 | 0.00 | 0.00 | 0.00 | 32 | 1012.6 |
| 20260506222308 | 54 | 165 | 3.5 | 7.0 | 0.00 | 0.00 | 0.00 | 31 | 1012.8 |
| 20260506221806 | 56 | 162 | 2.6 | 2.6 | 0.00 | 0.00 | 0.00 | 30 | 1012.6 |
| 20260506221303 | 56 | 312 | 0.0 | 0.9 | 0.00 | 0.00 | 0.00 | 30 | 1012.7 |
| 20260506220802 | 54 | 171 | 1.7 | 2.6 | 0.00 | 0.00 | 0.00 | 31 | 1012.8 |
| 20260506220301 | 55 | 119 | 2.6 | 3.5 | 0.00 | 0.00 | 0.00 | 31 | 1012.9 |
| 20260506215758 | 55 | 89 | 2.6 | 2.6 | 0.00 | 0.00 | 0.00 | 30 | 1012.8 |
| 20260506215254 | 55 | 234 | 0.9 | 1.7 | 0.00 | 0.00 | 0.00 | 31 | 1013.1 |
| 20260506214750 | 55 | 214 | 2.6 | 5.2 | 0.00 | 0.00 | 0.00 | 31 | 1012.9 |
| 20260506214248 | 54 | 205 | 0.0 | 0.0 | 0.00 | 0.00 | 0.00 | 31 | 1013.1 |
| 20260506213746 | 55 | 268 | 1.7 | 1.7 | 0.00 | 0.00 | 0.00 | 33 | 1013.2 |
| 20260506213243 | 54 | 177 | 1.7 | 3.5 | 0.00 | 0.00 | 0.00 | 32 | 1013.3 |
| 20260506212740 | 54 | 141 | 3.5 | 5.2 | 0.00 | 0.00 | 0.00 | 33 | 1013.3 |
| 20260506212236 | 54 | 342 | 4.3 | 6.1 | 0.00 | 0.00 | 0.00 | 32 | 1013.2 |
| 20260506211731 | 54 | 210 | 2.6 | 3.5 | 0.00 | 0.00 | 0.00 | 33 | 1013.4 |
| 20260506211227 | 54 | 274 | 1.7 | 1.7 | 0.00 | 0.00 | 0.00 | 36 | 1013.5 |
| 20260506210725 | 54 | 214 | 3.5 | 5.2 | 0.00 | 0.00 | 0.00 | 33 | 1013.4 |
| 20260506210222 | 53 | 130 | 4.3 | 6.1 | 0.00 | 0.00 | 0.00 | 33 | 1013.6 |
| 20260506205719 | 53 | 244 | 1.7 | 2.6 | 0.00 | 0.00 | 0.00 | 34 | 1013.6 |
| 20260506205214 | 54 | 175 | 6.1 | 9.6 | 0.00 | 0.00 | 0.00 | 33 | 1013.5 |
| 20260506204711 | 55 | 246 | 0.9 | 1.7 | 0.00 | 0.00 | 0.00 | 38 | 1013.7 |
| 20260506204208 | 54 | 222 | 1.7 | 2.6 | 0.00 | 0.00 | 0.00 | 35 | 1013.7 |
| 20260506203707 | 53 | 163 | 1.7 | 1.7 | 0.00 | 0.00 | 0.00 | 36 | 1013.8 |
| 20260506203203 | 53 | 224 | 0.9 | 1.7 | 0.00 | 0.00 | 0.00 | 35 | 1013.9 |
| 20260506202701 | 53 | 197 | 1.7 | 2.6 | 0.00 | 0.00 | 0.00 | 36 | 1013.9 |
| 20260506202156 | 53 | 217 | 2.6 | 3.5 | 0.00 | 0.00 | 0.00 | 36 | 1013.9 |
| 20260506201654 | 53 | 212 | 0.9 | 1.7 | 0.00 | 0.00 | 0.00 | 36 | 1013.9 |
| 20260506201150 | 53 | 177 | 0.9 | 1.7 | 0.00 | 0.00 | 0.00 | 35 | 1013.9 |
| 20260506200647 | 54 | 198 | 0.0 | 0.9 | 0.00 | 0.00 | 0.00 | 35 | 1014.0 |
| 20260506200144 | 53 | 135 | 0.9 | 1.7 | 0.00 | 0.00 | 0.00 | 35 | 1014.0 |
| 20260506195641 | 54 | 227 | 0.9 | 1.7 | 0.00 | 0.00 | 0.00 | 35 | 1014.1 |
| 20260506195137 | 54 | 264 | 0.9 | 1.7 | 0.00 | 0.00 | 0.00 | 35 | 1014.2 |
| 20260506194635 | 54 | 241 | 2.6 | 3.5 | 0.00 | 0.00 | 0.00 | 37 | 1014.2 |
| 20260506194130 | 52 | 230 | 0.0 | 0.0 | 0.00 | 0.00 | 0.00 | 36 | 1014.4 |
| 20260506193629 | 53 | 129 | 5.2 | 6.1 | 0.00 | 0.00 | 0.00 | 35 | 1014.3 |
| 20260506193125 | 53 | 160 | 2.6 | 3.5 | 0.00 | 0.00 | 0.00 | 35 | 1014.3 |
| 20260506192622 | 52 | 182 | 3.5 | 3.5 | 0.00 | 0.00 | 0.00 | 35 | 1014.4 |
| 20260506192118 | 52 | 78 | 1.7 | 1.7 | 0.00 | 0.00 | 0.00 | 36 | 1014.4 |
| 20260506191615 | 51 | 231 | 0.9 | 0.9 | 0.00 | 0.00 | 0.00 | 36 | 1014.5 |
| 20260506191111 | 52 | 199 | 3.5 | 5.2 | 0.00 | 0.00 | 0.00 | 36 | 1014.6 |
| 20260506190609 | 53 | 179 | 2.6 | 3.5 | 0.00 | 0.00 | 0.00 | 35 | 1014.6 |
| 20260506190105 | 52 | 232 | 1.7 | 1.7 | 0.00 | 0.00 | 0.00 | 34 | 1014.7 |
| 20260506185603 | 52 | 252 | 2.6 | 2.6 | 0.00 | 0.00 | 0.00 | 36 | 1014.6 |
| 20260506185059 | 53 | 275 | 2.6 | 3.5 | 0.00 | 0.00 | 0.00 | 37 | 1014.5 |
| 20260506184556 | 52 | 140 | 1.7 | 2.6 | 0.00 | 0.00 | 0.00 | 36 | 1014.7 |
| 20260506184054 | 51 | 14 | 4.3 | 7.0 | 0.00 | 0.00 | 0.00 | 35 | 1014.7 |
| 20260506183549 | 51 | 175 | 2.6 | 2.6 | 0.00 | 0.00 | 0.00 | 36 | 1014.9 |
| 20260506183046 | 52 | 147 | 1.7 | 5.2 | 0.00 | 0.00 | 0.00 | 38 | 1014.7 |
| 20260506182543 | 51 | 241 | 1.7 | 2.6 | 0.00 | 0.00 | 0.00 | 39 | 1015.0 |
| 20260506182041 | 53 | 209 | 3.5 | 3.5 | 0.00 | 0.00 | 0.00 | 39 | 1015.1 |
| 20260506181538 | 51 | 159 | 4.3 | 7.8 | 0.00 | 0.00 | 0.00 | 37 | 1015.0 |
| 20260506181035 | 51 | 182 | 3.5 | 5.2 | 0.00 | 0.00 | 0.00 | 38 | 1015.2 |
| 20260506180531 | 52 | 295 | 4.3 | 6.1 | 0.00 | 0.00 | 0.00 | 39 | 1015.2 |
| 20260506180028 | 52 | 128 | 7.8 | 12.2 | 0.00 | 0.00 | 0.00 | 37 | 1015.4 |
| 20260506175525 | 52 | 112 | 1.7 | 2.6 | 0.00 | 0.00 | 0.00 | 38 | 1015.4 |
| 20260506175021 | 50 | 157 | 7.0 | 9.6 | 0.00 | 0.00 | 0.00 | 37 | 1015.4 |
| 20260506174520 | 51 | 251 | 1.7 | 1.7 | 0.00 | 0.00 | 0.00 | 41 | 1015.4 |
| 20260506174015 | 50 | 257 | 5.2 | 7.0 | 0.00 | 0.00 | 0.00 | 38 | 1015.6 |
| 20260506173513 | 50 | 198 | 4.3 | 6.1 | 0.00 | 0.00 | 0.00 | 38 | 1015.4 |
| 20260506173010 | 50 | 54 | 7.0 | 8.7 | 0.00 | 0.00 | 0.00 | 38 | 1015.4 |
| 20260506172508 | 50 | 163 | 1.7 | 2.6 | 0.00 | 0.00 | 0.00 | 40 | 1015.6 |
| 20260506172003 | 49 | 179 | 0.9 | 1.7 | 0.00 | 0.00 | 0.00 | 39 | 1015.6 |
| 20260506171501 | 49 | 196 | 1.7 | 2.6 | 0.00 | 0.00 | 0.00 | 40 | 1015.8 |
| 20260506170959 | 49 | 173 | 1.7 | 1.7 | 0.00 | 0.00 | 0.00 | 45 | 1015.6 |
| 20260506170455 | 49 | 283 | 0.9 | 1.7 | 0.00 | 0.00 | 0.00 | 41 | 1015.6 |
| 20260506165953 | 48 | 216 | 1.7 | 2.6 | 0.00 | 0.00 | 0.00 | 40 | 1015.7 |
| 20260506165452 | 50 | 236 | 1.7 | 2.6 | 0.00 | 0.00 | 0.00 | 39 | 1015.7 |
| 20260506164947 | 49 | 207 | 1.7 | 2.6 | 0.00 | 0.00 | 0.00 | 40 | 1015.6 |
| 20260506164444 | 49 | 198 | 1.7 | 2.6 | 0.00 | 0.00 | 0.00 | 41 | 1015.8 |
| 20260506163942 | 49 | 260 | 6.1 | 7.0 | 0.00 | 0.00 | 0.00 | 41 | 1016.0 |
| 20260506163437 | 49 | 254 | 2.6 | 2.6 | 0.00 | 0.00 | 0.00 | 42 | 1015.9 |
| 20260506162932 | 47 | 222 | 1.7 | 1.7 | 0.00 | 0.00 | 0.00 | 43 | 1015.9 |
| 20260506162430 | 49 | 191 | 2.6 | 3.5 | 0.00 | 0.00 | 0.00 | 43 | 1015.8 |
| 20260506161928 | 48 | 247 | 1.7 | 1.7 | 0.00 | 0.00 | 0.00 | 44 | 1015.9 |
| 20260506161426 | 47 | 262 | 4.3 | 5.2 | 0.00 | 0.00 | 0.00 | 43 | 1015.8 |
| 20260506160923 | 48 | 241 | 2.6 | 3.5 | 0.00 | 0.00 | 0.00 | 44 | 1015.9 |
| 20260506160420 | 49 | 245 | 1.7 | 2.6 | 0.00 | 0.00 | 0.00 | 44 | 1015.8 |
| 20260506155918 | 48 | 240 | 1.7 | 2.6 | 0.00 | 0.00 | 0.00 | 44 | 1016.0 |
| 20260506155415 | 47 | 255 | 1.7 | 2.6 | 0.00 | 0.00 | 0.00 | 46 | 1015.9 |
| 20260506153536 | 47 | 286 | 0.9 | 0.9 | 0.00 | 0.00 | 0.00 | 45 | 1015.9 |
| 20260506153034 | 47 | 246 | 2.6 | 3.5 | 0.00 | 0.00 | 0.00 | 46 | 1016.1 |
| 20260506152531 | 46 | 254 | 1.7 | 2.6 | 0.00 | 0.00 | 0.00 | 47 | 1016.1 |
| 20260506152029 | 46 | 94 | 0.9 | 1.7 | 0.00 | 0.00 | 0.00 | 46 | 1016.2 |
| 20260506151526 | 47 | 274 | 0.9 | 0.9 | 0.00 | 0.00 | 0.00 | 49 | 1016.1 |
| 20260506151023 | 46 | 198 | 0.0 | 0.9 | 0.00 | 0.00 | 0.00 | 49 | 1016.0 |
| 20260506150519 | 46 | 205 | 2.6 | 3.5 | 0.00 | 0.00 | 0.00 | 47 | 1016.2 |
| 20260506150017 | 46 | 331 | 0.9 | 1.7 | 0.00 | 0.00 | 0.00 | 49 | 1016.1 |
| 20260506145513 | 45 | 238 | 0.0 | 0.9 | 0.00 | 0.00 | 0.00 | 48 | 1016.1 |
| 20260506145011 | 45 | 161 | 0.9 | 2.6 | 0.00 | 0.00 | 0.00 | 48 | 1016.4 |
| 20260506144507 | 45 | 254 | 0.9 | 1.7 | 0.00 | 0.00 | 0.00 | 50 | 1016.2 |
| 20260506144005 | 45 | 243 | 0.0 | 0.0 | 0.00 | 0.00 | 0.00 | 49 | 1016.2 |
| 20260506143502 | 44 | 240 | 0.0 | 0.9 | 0.00 | 0.00 | 0.00 | 52 | 1016.2 |
| 20260506143001 | 44 | 220 | 0.9 | 0.9 | 0.00 | 0.00 | 0.00 | 50 | 1016.2 |
| 20260506142458 | 43 | 235 | 0.9 | 0.9 | 0.00 | 0.00 | 0.00 | 52 | 1016.1 |
| 20260506141955 | 43 | 260 | 0.9 | 1.7 | 0.00 | 0.00 | 0.00 | 51 | 1016.1 |
| 20260506141453 | 43 | 235 | 1.7 | 2.6 | 0.00 | 0.00 | 0.00 | 51 | 1016.4 |
| 20260506140952 | 43 | 220 | 1.7 | 1.7 | 0.00 | 0.00 | 0.00 | 52 | 1016.3 |
| 20260506140448 | 42 | 175 | 0.9 | 1.7 | 0.00 | 0.00 | 0.00 | 53 | 1016.2 |
| 20260506135945 | 42 | 300 | 0.0 | 0.9 | 0.00 | 0.00 | 0.00 | 53 | 1016.2 |
| 20260506135442 | 42 | 253 | 0.9 | 0.9 | 0.00 | 0.00 | 0.00 | 52 | 1016.3 |
| 20260506134938 | 42 | 261 | 0.0 | 0.9 | 0.00 | 0.00 | 0.00 | 53 | 1016.2 |
| 20260506134434 | 42 | 208 | 1.7 | 2.6 | 0.00 | 0.00 | 0.00 | 54 | 1016.3 |
| 20260506133931 | 41 | 164 | 1.7 | 1.7 | 0.00 | 0.00 | 0.00 | 56 | 1016.2 |
| 20260506133429 | 41 | 242 | 0.9 | 0.9 | 0.00 | 0.00 | 0.00 | 56 | 1016.2 |
| 20260506132925 | 40 | 253 | 0.0 | 0.0 | 0.00 | 0.00 | 0.00 | 60 | 1016.1 |
| 20260506132422 | 39 | 204 | 0.9 | 0.9 | 0.00 | 0.00 | 0.00 | 59 | 1016.1 |
| 20260506131920 | 39 | 240 | 0.9 | 1.7 | 0.00 | 0.00 | 0.00 | 62 | 1016.1 |
| 20260506131416 | 38 | 234 | 0.0 | 0.0 | 0.00 | 0.00 | 0.00 | 64 | 1016.0 |
| 20260506130913 | 38 | 260 | 0.0 | 0.0 | 0.00 | 0.00 | 0.00 | 65 | 1015.9 |
| 20260506130409 | 37 | 257 | 0.0 | 0.9 | 0.00 | 0.00 | 0.00 | 67 | 1015.9 |
| 20260506125908 | 36 | 267 | 0.9 | 0.9 | 0.00 | 0.00 | 0.00 | 69 | 1015.8 |
| 20260506125406 | 35 | 259 | 0.0 | 0.0 | 0.00 | 0.00 | 0.00 | 71 | 1015.8 |
| 20260506124904 | 35 | 256 | 0.0 | 0.0 | 0.00 | 0.00 | 0.00 | 72 | 1015.7 |
| 20260506124401 | 34 | 257 | 0.0 | 0.0 | 0.00 | 0.00 | 0.00 | 75 | 1015.9 |
| 20260506123858 | 33 | 258 | 0.0 | 0.0 | 0.00 | 0.00 | 0.00 | 76 | 1015.6 |
| 20260506123356 | 33 | 258 | 0.0 | 0.0 | 0.00 | 0.00 | 0.00 | 77 | 1015.8 |
| 20260506122854 | 32 | 258 | 0.0 | 0.0 | 0.00 | 0.00 | 0.00 | 78 | 1015.7 |
| 20260506122350 | 31 | 257 | 0.0 | 0.9 | 0.00 | 0.00 | 0.00 | 79 | 1015.6 |
| 20260506121849 | 31 | 266 | 0.0 | 0.0 | 0.00 | 0.00 | 0.00 | 80 | 1015.6 |
| 20260506121345 | 31 | 266 | 0.0 | 0.0 | 0.00 | 0.00 | 0.00 | 81 | 1015.5 |
| 20260506120842 | 30 | 265 | 0.0 | 0.0 | 0.00 | 0.00 | 0.00 | 83 | 1015.5 |
| 20260506120340 | 29 | 265 | 0.0 | 0.0 | 0.00 | 0.00 | 0.00 | 83 | 1015.5 |
| 20260506115837 | 29 | 265 | 0.0 | 0.0 | 0.00 | 0.00 | 0.00 | 83 | 1015.3 |
| 20260506115335 | 29 | 265 | 0.0 | 0.0 | 0.00 | 0.00 | 0.00 | 83 | 1015.2 |
| 20260506114833 | 29 | 264 | 0.0 | 0.0 | 0.00 | 0.00 | 0.00 | 84 | 1015.2 |
| 20260506114330 | 29 | 266 | 0.0 | 0.0 | 0.00 | 0.00 | 0.00 | 84 | 1015.1 |
| 20260506113829 | 29 | 262 | 0.0 | 0.0 | 0.00 | 0.00 | 0.00 | 84 | 1015.2 |
| 20260506113326 | 29 | 266 | 0.0 | 0.0 | 0.00 | 0.00 | 0.00 | 83 | 1014.9 |
| 20260506112823 | 29 | 268 | 0.0 | 0.0 | 0.00 | 0.00 | 0.00 | 82 | 1014.9 |
| 20260506112320 | 29 | 268 | 0.0 | 0.0 | 0.00 | 0.00 | 0.00 | 83 | 1014.9 |
| 20260506111817 | 29 | 268 | 0.0 | 0.0 | 0.00 | 0.00 | 0.00 | 84 | 1014.9 |
| 20260506111315 | 28 | 265 | 0.0 | 0.0 | 0.00 | 0.00 | 0.00 | 85 | 1014.7 |
| 20260506110812 | 28 | 264 | 0.0 | 0.0 | 0.00 | 0.00 | 0.00 | 84 | 1014.6 |
| 20260506110309 | 28 | 264 | 0.0 | 0.0 | 0.00 | 0.00 | 0.00 | 83 | 1014.6 |
| 20260506105806 | 28 | 264 | 0.0 | 0.0 | 0.00 | 0.00 | 0.00 | 82 | 1014.9 |
| 20260506105305 | 29 | 261 | 0.0 | 0.0 | 0.00 | 0.00 | 0.00 | 81 | 1014.5 |
| 20260506104800 | 30 | 261 | 0.0 | 0.0 | 0.00 | 0.00 | 0.00 | 80 | 1014.4 |
| 20260506104258 | 30 | 261 | 0.0 | 0.0 | 0.00 | 0.00 | 0.00 | 80 | 1014.5 |
| 20260506103755 | 29 | 262 | 0.0 | 0.0 | 0.00 | 0.00 | 0.00 | 80 | 1014.6 |
| 20260506103253 | 30 | 261 | 0.0 | 0.0 | 0.00 | 0.00 | 0.00 | 79 | 1014.3 |
| 20260506102750 | 30 | 261 | 0.0 | 0.0 | 0.00 | 0.00 | 0.00 | 78 | 1014.3 |
| 20260506102248 | 30 | 264 | 0.0 | 0.0 | 0.00 | 0.00 | 0.00 | 79 | 1014.5 |
| 20260506101745 | 30 | 266 | 0.0 | 0.0 | 0.00 | 0.00 | 0.00 | 78 | 1014.3 |
| 20260506101241 | 31 | 266 | 0.0 | 0.0 | 0.00 | 0.00 | 0.00 | 77 | 1014.3 |
| 20260506100739 | 30 | 267 | 0.0 | 0.0 | 0.00 | 0.00 | 0.00 | 77 | 1014.2 |
| 20260506100237 | 30 | 267 | 0.0 | 0.0 | 0.00 | 0.00 | 0.00 | 77 | 1014.2 |
| 20260506095735 | 30 | 267 | 0.0 | 0.0 | 0.00 | 0.00 | 0.00 | 76 | 1014.4 |
| 20260506095232 | 31 | 267 | 0.0 | 0.0 | 0.00 | 0.00 | 0.00 | 76 | 1014.4 |
| 20260506094728 | 31 | 271 | 0.0 | 0.0 | 0.00 | 0.00 | 0.00 | 76 | 1014.3 |
| 20260506094227 | 31 | 272 | 0.0 | 0.0 | 0.00 | 0.00 | 0.00 | 77 | 1014.1 |
| 20260506093725 | 30 | 264 | 0.0 | 0.0 | 0.00 | 0.00 | 0.00 | 77 | 1014.2 |
| 20260506093222 | 31 | 263 | 0.0 | 0.0 | 0.00 | 0.00 | 0.00 | 76 | 1013.8 |
| 20260506092720 | 30 | 263 | 0.0 | 0.0 | 0.00 | 0.00 | 0.00 | 77 | 1013.9 |
| 20260506092217 | 31 | 263 | 0.0 | 0.0 | 0.00 | 0.00 | 0.00 | 76 | 1014.1 |
| 20260506091715 | 31 | 263 | 0.0 | 0.0 | 0.00 | 0.00 | 0.00 | 75 | 1014.1 |
| 20260506091212 | 31 | 262 | 0.0 | 0.0 | 0.00 | 0.00 | 0.00 | 75 | 1014.2 |
| 20260506090710 | 32 | 260 | 0.0 | 0.0 | 0.00 | 0.00 | 0.00 | 74 | 1014.0 |
| 20260506090206 | 31 | 260 | 0.0 | 0.0 | 0.00 | 0.00 | 0.00 | 75 | 1014.0 |
| 20260506085703 | 31 | 261 | 0.0 | 0.0 | 0.00 | 0.00 | 0.00 | 75 | 1013.9 |
| 20260506085159 | 31 | 261 | 0.0 | 0.0 | 0.00 | 0.00 | 0.00 | 75 | 1014.0 |
| 20260506084656 | 31 | 256 | 0.0 | 0.0 | 0.00 | 0.00 | 0.00 | 75 | 1014.0 |
| 20260506084152 | 31 | 261 | 0.0 | 0.0 | 0.00 | 0.00 | 0.00 | 75 | 1013.9 |
| 20260506083649 | 31 | 262 | 0.0 | 0.0 | 0.00 | 0.00 | 0.00 | 75 | 1013.8 |
| 20260506083147 | 31 | 261 | 0.0 | 0.0 | 0.00 | 0.00 | 0.00 | 74 | 1013.9 |
| 20260506082644 | 32 | 261 | 0.0 | 0.0 | 0.00 | 0.00 | 0.00 | 72 | 1013.8 |
| 20260506082144 | 32 | 261 | 0.0 | 0.0 | 0.00 | 0.00 | 0.00 | 72 | 1013.8 |
| 20260506081643 | 32 | 261 | 0.0 | 0.0 | 0.00 | 0.00 | 0.00 | 71 | 1013.8 |
| 20260506081141 | 33 | 261 | 0.0 | 0.0 | 0.00 | 0.00 | 0.00 | 70 | 1013.5 |
| 20260506080638 | 33 | 261 | 0.0 | 0.0 | 0.00 | 0.00 | 0.00 | 70 | 1013.4 |
| 20260506080134 | 33 | 260 | 0.0 | 0.0 | 0.00 | 0.00 | 0.00 | 69 | 1013.6 |
| 20260506073119 | 33 | 266 | 0.0 | 0.0 | 0.00 | 0.00 | 0.00 | 71 | 1013.3 |
| 20260506072615 | 33 | 270 | 0.0 | 0.0 | 0.00 | 0.00 | 0.00 | 71 | 1013.2 |
| 20260506072113 | 33 | 270 | 0.0 | 0.0 | 0.00 | 0.00 | 0.00 | 70 | 1013.2 |
| 20260506071610 | 34 | 271 | 0.0 | 0.0 | 0.00 | 0.00 | 0.00 | 69 | 1013.2 |
| 20260506071108 | 34 | 277 | 0.0 | 0.0 | 0.00 | 0.00 | 0.00 | 69 | 1013.3 |
| 20260506070605 | 33 | 269 | 0.0 | 0.0 | 0.00 | 0.00 | 0.00 | 69 | 1013.6 |
| 20260506062039 | 34 | 269 | 0.0 | 0.0 | 0.00 | 0.00 | 0.00 | 65 | 1013.5 |
| 20260506061535 | 34 | 269 | 0.0 | 0.0 | 0.00 | 0.00 | 0.00 | 65 | 1013.6 |
| 20260506061032 | 34 | 278 | 0.0 | 0.0 | 0.00 | 0.00 | 0.00 | 64 | 1013.6 |
| 20260506060531 | 35 | 266 | 0.0 | 0.0 | 0.00 | 0.00 | 0.00 | 64 | 1013.5 |
| 20260506050959 | 37 | 254 | 0.9 | 0.9 | 0.00 | 0.00 | 0.00 | 58 | 1012.9 |
| 20260506050457 | 38 | 250 | 0.0 | 0.0 | 0.00 | 0.00 | 0.00 | 58 | 1012.8 |
| 20260506044948 | 39 | 248 | 0.0 | 0.9 | 0.00 | 0.00 | 0.00 | 56 | 1013.1 |
| 20260506044446 | 39 | 251 | 0.0 | 0.9 | 0.00 | 0.00 | 0.00 | 56 | 1013.1 |
| 20260506043942 | 39 | 236 | 0.0 | 0.9 | 0.00 | 0.00 | 0.00 | 56 | 1013.1 |
| 20260506043440 | 39 | 257 | 0.9 | 0.9 | 0.00 | 0.00 | 0.00 | 56 | 1013.1 |
| 20260506042937 | 40 | 260 | 0.0 | 0.9 | 0.00 | 0.00 | 0.00 | 55 | 1013.2 |
| 20260506042437 | 40 | 262 | 0.0 | 0.9 | 0.00 | 0.00 | 0.00 | 55 | 1013.2 |
| 20260506041934 | 40 | 243 | 1.7 | 1.7 | 0.00 | 0.00 | 0.00 | 54 | 1013.1 |
| 20260506041432 | 40 | 233 | 0.9 | 0.9 | 0.00 | 0.00 | 0.00 | 53 | 1013.1 |
| 20260506040929 | 40 | 249 | 0.9 | 0.9 | 0.00 | 0.00 | 0.00 | 54 | 1013.1 |
| 20260506040426 | 40 | 246 | 0.0 | 0.9 | 0.00 | 0.00 | 0.00 | 54 | 1013.4 |
| 20260506035922 | 39 | 243 | 0.0 | 0.0 | 0.00 | 0.00 | 0.00 | 53 | 1013.2 |
| 20260506035420 | 39 | 250 | 0.0 | 0.9 | 0.00 | 0.00 | 0.00 | 55 | 1013.2 |
| 20260506034917 | 38 | 251 | 0.0 | 0.0 | 0.00 | 0.00 | 0.00 | 57 | 1013.2 |
| 20260506034414 | 37 | 261 | 0.0 | 0.0 | 0.00 | 0.00 | 0.00 | 59 | 1013.2 |
| 20260506033911 | 38 | 259 | 0.0 | 0.0 | 0.00 | 0.00 | 0.00 | 58 | 1013.1 |
| 20260506033408 | 39 | 260 | 0.0 | 0.0 | 0.00 | 0.00 | 0.00 | 56 | 1013.2 |
| 20260506032905 | 39 | 260 | 0.0 | 0.0 | 0.00 | 0.00 | 0.00 | 55 | 1013.0 |
| 20260506032402 | 40 | 254 | 0.0 | 0.0 | 0.00 | 0.00 | 0.00 | 53 | 1012.9 |
| 20260506031858 | 41 | 250 | 0.0 | 0.0 | 0.00 | 0.00 | 0.00 | 52 | 1013.0 |
| 20260506031356 | 41 | 254 | 0.0 | 0.0 | 0.00 | 0.00 | 0.00 | 51 | 1013.0 |
| 20260506030853 | 41 | 259 | 0.0 | 0.0 | 0.00 | 0.00 | 0.00 | 51 | 1012.9 |
| 20260506030351 | 42 | 247 | 0.0 | 0.9 | 0.00 | 0.00 | 0.00 | 50 | 1013.0 |
| 20260506025848 | 42 | 255 | 0.0 | 0.0 | 0.00 | 0.00 | 0.00 | 50 | 1012.8 |
| 20260506025344 | 42 | 263 | 0.9 | 0.9 | 0.00 | 0.00 | 0.00 | 50 | 1012.8 |
| 20260506024841 | 42 | 249 | 0.0 | 0.0 | 0.00 | 0.00 | 0.00 | 50 | 1012.9 |
| 20260506024338 | 42 | 248 | 0.0 | 0.0 | 0.00 | 0.00 | 0.00 | 49 | 1012.7 |
| 20260506023834 | 42 | 241 | 0.9 | 0.9 | 0.00 | 0.00 | 0.00 | 48 | 1012.5 |
| 20260506023331 | 42 | 263 | 0.9 | 0.9 | 0.00 | 0.00 | 0.00 | 48 | 1012.5 |
| 20260506022828 | 43 | 260 | 0.9 | 0.9 | 0.00 | 0.00 | 0.00 | 48 | 1012.3 |
| 20260506022326 | 43 | 309 | 0.9 | 0.9 | 0.00 | 0.00 | 0.00 | 48 | 1012.2 |
| 20260506021824 | 44 | 326 | 0.9 | 0.9 | 0.00 | 0.00 | 0.00 | 46 | 1012.1 |
| 20260506021320 | 44 | 80 | 1.7 | 1.7 | 0.00 | 0.00 | 0.00 | 47 | 1012.0 |
| 20260506020817 | 44 | 341 | 2.6 | 2.6 | 0.00 | 0.00 | 0.00 | 45 | 1011.9 |
| 20260506020315 | 44 | 245 | 3.5 | 3.5 | 0.00 | 0.00 | 0.00 | 46 | 1011.9 |
| 20260506015812 | 44 | 139 | 1.7 | 1.7 | 0.00 | 0.00 | 0.00 | 45 | 1011.8 |
| 20260506015310 | 44 | 310 | 0.9 | 1.7 | 0.00 | 0.00 | 0.00 | 46 | 1011.7 |
| 20260506014806 | 45 | 275 | 0.9 | 1.7 | 0.00 | 0.00 | 0.00 | 45 | 1011.6 |
| 20260506014303 | 45 | 181 | 0.9 | 1.7 | 0.00 | 0.00 | 0.00 | 45 | 1011.5 |
| 20260506013800 | 45 | 318 | 1.7 | 1.7 | 0.00 | 0.00 | 0.00 | 42 | 1011.8 |
| 20260506013257 | 46 | 212 | 1.7 | 1.7 | 0.00 | 0.00 | 0.00 | 42 | 1011.6 |
| 20260506012753 | 46 | 173 | 1.7 | 1.7 | 0.00 | 0.00 | 0.00 | 42 | 1011.6 |
| 20260506012250 | 46 | 256 | 0.9 | 1.7 | 0.00 | 0.00 | 0.00 | 44 | 1011.3 |
| 20260506011748 | 46 | 225 | 0.9 | 1.7 | 0.00 | 0.00 | 0.00 | 42 | 1011.4 |
| 20260506011244 | 46 | 253 | 1.7 | 3.5 | 0.00 | 0.00 | 0.00 | 42 | 1011.4 |
| 20260506010742 | 46 | 231 | 0.0 | 0.9 | 0.00 | 0.00 | 0.00 | 42 | 1011.4 |
| 20260506010239 | 47 | 252 | 1.7 | 1.7 | 0.00 | 0.00 | 0.00 | 41 | 1011.3 |
| 20260506005737 | 47 | 264 | 1.7 | 1.7 | 0.00 | 0.00 | 0.00 | 40 | 1011.4 |
| 20260506005233 | 47 | 267 | 1.7 | 1.7 | 0.00 | 0.00 | 0.00 | 39 | 1011.3 |
| 20260506004729 | 48 | 190 | 4.3 | 6.1 | 0.00 | 0.00 | 0.00 | 39 | 1011.2 |
| 20260506004227 | 48 | 250 | 1.7 | 1.7 | 0.00 | 0.00 | 0.00 | 40 | 1011.1 |
| 20260506003722 | 48 | 212 | 0.9 | 1.7 | 0.00 | 0.00 | 0.00 | 39 | 1010.9 |
| 20260506003219 | 48 | 218 | 1.7 | 3.5 | 0.00 | 0.00 | 0.00 | 38 | 1010.9 |
| 20260506002715 | 48 | 256 | 2.6 | 3.5 | 0.00 | 0.00 | 0.00 | 38 | 1011.0 |
| 20260506002211 | 49 | 245 | 3.5 | 3.5 | 0.00 | 0.00 | 0.00 | 36 | 1010.9 |
| 20260506001707 | 49 | 246 | 4.3 | 6.1 | 0.00 | 0.00 | 0.00 | 37 | 1011.0 |